Time;durP1;ratioP1;P1;durP2;ratioP2;P2;SDS_P1;SDS_P2;PMS_P1;PMS_P2;Temp;Humidity;BMP_temperature;BMP_pressure;BME280_temperature;BME280_humidity;BME280_pressure;Samples;Min_cycle;Max_cycle;Signal;HPM_P1;HPM_P2
2022/02/03 00:01:00;;;;;;;13.30;2.70;;;2.50;99.90;;;;;;5033850;28;20420;-86
2022/02/03 00:06:14;;;;;;;11.60;2.40;;;2.50;99.90;;;;;;5035425;28;21037;-87
2022/02/03 00:11:40;;;;;;;6.70;1.57;;;2.50;99.90;;;;;;5035031;28;20425;-85
2022/02/03 00:16:25;;;;;;;7.63;2.00;;;2.50;99.90;;;;;;5034923;28;20420;-85
2022/02/03 00:22:20;;;;;;;8.07;2.03;;;2.50;99.90;;;;;;5075132;28;20188;-86
2022/02/03 00:28:00;;;;;;;8.73;2.77;;;2.50;99.90;;;;;;5074662;28;20569;-87
2022/02/03 00:33:27;;;;;;;10.97;2.00;;;2.50;99.90;;;;;;5074604;28;20418;-85
2022/02/03 00:48:15;;;;;;;7.60;1.63;;;2.60;99.90;;;;;;5074791;28;20414;-87
2022/02/03 00:49:28;;;;;;;5.90;1.20;;;2.70;99.90;;;;;;5063829;28;20500;-86
2022/02/03 00:52:01;;;;;;;7.00;2.17;;;2.60;99.90;;;;;;5063044;28;20420;-89
2022/02/03 00:54:30;;;;;;;6.10;2.17;;;2.60;99.90;;;;;;5061968;28;20950;-86
2022/02/03 00:57:08;;;;;;;7.43;1.87;;;2.70;99.90;;;;;;5065350;28;20534;-86
2022/02/03 00:59:56;;;;;;;8.27;2.60;;;2.70;99.90;;;;;;5068760;28;20434;-87
2022/02/03 01:02:24;;;;;;;5.80;1.50;;;2.70;99.90;;;;;;5088219;28;20795;-87
2022/02/03 01:04:53;;;;;;;7.33;2.40;;;2.50;99.90;;;;;;5073510;28;20438;-92
2022/02/03 01:07:20;;;;;;;9.60;1.70;;;2.50;99.90;;;;;;5073251;28;20548;-89
2022/02/03 01:10:02;;;;;;;10.23;1.57;;;2.50;99.90;;;;;;5090428;28;20819;-88
2022/02/03 01:18:03;;;;;;;5.07;1.57;;;2.40;99.90;;;;;;5073849;28;20467;-88
2022/02/03 01:37:09;;;;;;;8.63;1.40;;;2.20;99.90;;;;;;5073989;28;20439;-87
2022/02/03 01:45:17;;;;;;;7.53;1.60;;;2.30;99.90;;;;;;5074029;28;20415;-88
2022/02/03 01:52:41;;;;;;;6.40;1.27;;;2.40;99.90;;;;;;5073112;28;20510;-87
2022/02/03 01:55:10;;;;;;;5.43;1.60;;;2.40;99.90;;;;;;5072908;28;20411;-88
2022/02/03 01:57:56;;;;;;;8.87;1.80;;;2.40;99.90;;;;;;5088980;28;20482;-87
2022/02/03 02:00:22;;;;;;;6.23;1.33;;;2.50;99.90;;;;;;5088644;28;20428;-88
2022/02/03 02:03:05;;;;;;;9.77;2.20;;;2.60;99.90;;;;;;5072348;28;20424;-89
2022/02/03 02:05:49;;;;;;;5.57;1.50;;;2.70;99.90;;;;;;5090064;28;20415;-89
2022/02/03 02:08:43;;;;;;;13.10;1.80;;;2.80;99.90;;;;;;5074425;28;20462;-89
2022/02/03 02:11:39;;;;;;;9.77;1.93;;;2.90;99.90;;;;;;5090634;28;20429;-90
2022/02/03 02:17:29;;;;;;;5.47;1.97;;;3.00;99.90;;;;;;5073380;28;20915;-89
2022/02/03 02:37:12;;;;;;;8.63;0.80;;;3.10;99.90;;;;;;5073393;28;20960;-87
2022/02/03 02:42:55;;;;;;;9.93;1.80;;;3.10;99.90;;;;;;5077135;28;20496;-88
2022/02/03 02:45:43;;;;;;;6.73;1.60;;;3.20;99.90;;;;;;5065184;28;20412;-88
2022/02/03 02:48:20;;;;;;;11.10;2.27;;;3.10;99.90;;;;;;5092614;28;20479;-88
2022/02/03 02:51:05;;;;;;;7.83;2.73;;;3.10;99.90;;;;;;5092613;28;20415;-89
2022/02/03 02:56:33;;;;;;;11.67;3.17;;;3.10;99.90;;;;;;5076900;28;20427;-88
2022/02/03 02:59:29;;;;;;;8.57;2.43;;;3.10;99.90;;;;;;5076753;28;20395;-88
2022/02/03 03:29:48;;;;;;;10.20;1.93;;;3.20;99.90;;;;;;5076618;28;20498;-87
2022/02/03 03:37:36;;;;;;;3.43;2.47;;;3.60;99.90;;;;;;5076646;28;20407;-89
2022/02/03 03:40:05;;;;;;;9.07;1.90;;;3.50;99.90;;;;;;5091928;28;20483;-88
2022/02/03 03:42:36;;;;;;;10.97;1.67;;;3.50;99.90;;;;;;5092695;28;20446;-88
2022/02/03 03:45:06;;;;;;;9.50;1.77;;;3.50;99.90;;;;;;5075507;28;20425;-87
2022/02/03 03:47:37;;;;;;;10.33;2.33;;;3.60;99.90;;;;;;5091154;28;20502;-87
2022/02/03 03:50:07;;;;;;;8.43;2.10;;;3.70;99.90;;;;;;5091135;28;20411;-87
2022/02/03 03:52:43;;;;;;;3.30;1.40;;;3.70;99.90;;;;;;5090683;28;20446;-87
2022/02/03 03:55:24;;;;;;;6.53;2.30;;;3.70;99.90;;;;;;5091236;28;20522;-87
2022/02/03 03:58:07;;;;;;;10.37;1.77;;;3.70;99.90;;;;;;5091478;28;20409;-87
2022/02/03 04:01:03;;;;;;;7.03;1.77;;;3.70;99.90;;;;;;5075265;28;20419;-87
2022/02/03 04:30:55;;;;;;;10.50;2.23;;;3.90;99.90;;;;;;5074940;28;20475;-89
2022/02/03 04:51:28;;;;;;;9.20;2.97;;;4.10;99.90;;;;;;5076427;28;20397;-92
2022/02/03 05:03:05;;;;;;;11.13;2.70;;;4.10;99.90;;;;;;5079793;28;20470;-90
2022/02/03 05:06:21;;;;;;;6.90;2.10;;;4.10;99.90;;;;;;5081681;28;20407;-90
2022/02/03 05:09:57;;;;;;;14.80;2.50;;;4.10;99.90;;;;;;5095991;28;20427;-91
2022/02/03 05:12:44;;;;;;;11.23;2.90;;;4.10;99.90;;;;;;5083814;28;20906;-91
2022/02/03 05:43:30;;;;;;;8.30;2.00;;;3.70;99.90;;;;;;5083301;28;20470;-89
2022/02/03 05:46:45;;;;;;;7.03;2.10;;;3.70;99.90;;;;;;5078734;28;20520;-89
2022/02/03 05:52:05;;;;;;;10.57;3.50;;;3.70;99.90;;;;;;5053827;28;20470;-87
2022/02/03 06:05:31;;;;;;;10.50;3.13;;;3.70;99.90;;;;;;5060335;28;20408;-87
2022/02/03 06:08:12;;;;;;;6.90;2.90;;;3.70;99.90;;;;;;5059410;28;20571;-87
2022/02/03 06:21:32;;;;;;;4.97;1.53;;;3.70;99.90;;;;;;5053450;28;20408;-88
2022/02/03 06:29:22;;;;;;;8.07;3.13;;;3.80;99.90;;;;;;5053511;28;20922;-89
2022/02/03 06:31:50;;;;;;;12.37;3.23;;;3.80;99.90;;;;;;5068856;28;20431;-88
2022/02/03 06:34:17;;;;;;;11.43;3.10;;;3.90;99.90;;;;;;5052832;28;20807;-89
2022/02/03 06:36:43;;;;;;;8.43;2.30;;;3.90;99.90;;;;;;5052510;28;20434;-88
2022/02/03 06:39:16;;;;;;;9.13;2.30;;;4.00;99.90;;;;;;5053489;28;20431;-89
2022/02/03 06:41:42;;;;;;;6.33;3.43;;;4.00;99.90;;;;;;5053652;28;20420;-89
2022/02/03 06:44:08;;;;;;;15.43;3.70;;;4.00;99.90;;;;;;5053339;28;20412;-89
2022/02/03 06:46:35;;;;;;;14.20;4.43;;;4.00;99.90;;;;;;5068453;28;20469;-89
2022/02/03 06:49:34;;;;;;;16.57;5.10;;;4.00;99.90;;;;;;5053411;28;20173;-88
2022/02/03 06:51:54;;;;;;;18.30;4.50;;;4.10;99.90;;;;;;5053234;28;20404;-89
2022/02/03 06:54:30;;;;;;;9.77;4.13;;;4.10;99.90;;;;;;5068956;28;20927;-89
2022/02/03 06:57:00;;;;;;;6.40;3.40;;;4.10;99.90;;;;;;5053160;28;20473;-89
2022/02/03 06:59:40;;;;;;;8.67;3.40;;;4.20;99.90;;;;;;5052112;28;20403;-86
2022/02/03 07:02:06;;;;;;;11.80;4.60;;;4.10;99.90;;;;;;5052400;28;20461;-85
2022/02/03 07:04:39;;;;;;;12.20;5.07;;;4.20;99.90;;;;;;5052577;28;20404;-85
2022/02/03 07:07:05;;;;;;;15.97;6.60;;;4.20;99.90;;;;;;5052617;28;20275;-85
2022/02/03 07:09:31;;;;;;;12.20;4.80;;;4.20;99.90;;;;;;5053110;28;20920;-85
2022/02/03 07:11:56;;;;;;;6.73;3.97;;;4.30;99.90;;;;;;5051311;28;20208;-85
2022/02/03 07:14:24;;;;;;;14.27;5.37;;;4.30;99.90;;;;;;5052141;28;20170;-85
2022/02/03 07:16:51;;;;;;;7.97;5.03;;;4.30;99.90;;;;;;5052519;28;20633;-86
2022/02/03 07:19:17;;;;;;;15.27;5.60;;;4.30;99.90;;;;;;5051232;28;20437;-85
2022/02/03 07:21:43;;;;;;;14.67;4.97;;;4.30;99.90;;;;;;5052480;28;20404;-85
2022/02/03 07:24:09;;;;;;;7.57;4.90;;;4.40;99.90;;;;;;5052442;28;20542;-85
2022/02/03 07:26:35;;;;;;;12.97;4.73;;;4.10;99.90;;;;;;5053634;28;20467;-84
2022/02/03 07:29:00;;;;;;;12.37;5.40;;;4.40;99.90;;;;;;5071380;28;20185;-84
2022/02/03 07:31:27;;;;;;;9.93;3.73;;;4.40;99.90;;;;;;5055595;28;20413;-84
2022/02/03 07:33:55;;;;;;;12.33;5.80;;;4.50;99.90;;;;;;5055998;28;20260;-84
2022/02/03 07:36:21;;;;;;;10.13;5.07;;;4.50;99.90;;;;;;5071236;28;20461;-85
2022/02/03 07:38:46;;;;;;;7.20;4.30;;;4.60;99.90;;;;;;5055827;28;20456;-84
2022/02/03 07:41:12;;;;;;;7.47;5.40;;;4.60;99.90;;;;;;5055797;28;20978;-85
2022/02/03 07:43:37;;;;;;;10.60;4.33;;;4.40;99.90;;;;;;5055739;28;20177;-85
2022/02/03 07:46:03;;;;;;;9.90;5.33;;;4.60;99.90;;;;;;5054167;28;20606;-84
2022/02/03 07:48:28;;;;;;;13.90;5.97;;;4.60;99.90;;;;;;5055401;28;20205;-85
2022/02/03 07:50:55;;;;;;;10.03;5.33;;;4.70;99.90;;;;;;5055636;28;20174;-84
2022/02/03 07:53:21;;;;;;;9.30;5.10;;;4.70;99.90;;;;;;5055501;28;20290;-83
2022/02/03 07:55:47;;;;;;;8.53;5.30;;;4.70;99.90;;;;;;5055673;28;20492;-86
2022/02/03 07:58:12;;;;;;;10.40;5.23;;;4.80;99.90;;;;;;5055501;28;20163;-85
2022/02/03 08:00:38;;;;;;;7.23;5.10;;;4.80;99.90;;;;;;5055091;28;20485;-87
2022/02/03 08:03:09;;;;;;;11.60;5.23;;;4.90;99.90;;;;;;5055357;28;20173;-86
2022/02/03 08:05:36;;;;;;;9.47;6.13;;;4.90;99.90;;;;;;5055433;28;20173;-87
2022/02/03 08:08:06;;;;;;;10.90;6.10;;;4.90;99.90;;;;;;5055273;28;20986;-87
2022/02/03 08:10:38;;;;;;;8.23;4.93;;;5.00;99.90;;;;;;5055398;28;20505;-87
2022/02/03 08:13:06;;;;;;;10.13;6.40;;;5.10;99.90;;;;;;5055440;28;20410;-87
2022/02/03 08:15:34;;;;;;;9.73;6.03;;;5.10;99.90;;;;;;5070332;28;20421;-88
2022/02/03 08:18:06;;;;;;;9.30;5.20;;;5.10;99.90;;;;;;5054108;28;20478;-90
2022/02/03 08:20:32;;;;;;;10.13;6.00;;;5.10;99.90;;;;;;5055748;28;20405;-88
2022/02/03 08:23:23;;;;;;;9.83;6.00;;;5.10;99.90;;;;;;5055660;28;20413;-90
2022/02/03 08:25:51;;;;;;;8.70;5.27;;;5.20;99.90;;;;;;5055545;28;20239;-88
2022/02/03 08:31:03;;;;;;;9.63;6.20;;;5.20;99.90;;;;;;5054887;28;20909;-88
2022/02/03 08:33:30;;;;;;;7.63;5.50;;;5.20;99.90;;;;;;5054993;28;20439;-87
2022/02/03 08:35:58;;;;;;;10.00;5.50;;;5.30;99.90;;;;;;5054918;28;20416;-87
2022/02/03 08:38:45;;;;;;;11.67;5.40;;;5.30;99.90;;;;;;5054536;28;20413;-87
2022/02/03 08:41:11;;;;;;;8.60;5.43;;;5.30;99.90;;;;;;5054815;28;20458;-87
2022/02/03 08:43:38;;;;;;;11.67;5.63;;;5.40;99.90;;;;;;5053421;28;20437;-87
2022/02/03 08:46:07;;;;;;;11.70;6.60;;;5.40;99.90;;;;;;5054426;28;20207;-89
2022/02/03 08:48:33;;;;;;;11.40;6.60;;;5.50;99.90;;;;;;5053556;28;20472;-88
2022/02/03 08:51:04;;;;;;;10.67;6.00;;;5.60;99.90;;;;;;5055276;28;20416;-88
2022/02/03 08:53:35;;;;;;;12.03;7.03;;;5.70;99.90;;;;;;5054997;28;20416;-89
2022/02/03 08:56:14;;;;;;;17.10;7.20;;;5.80;99.90;;;;;;5053355;28;20412;-87
2022/02/03 09:34:43;;;;;;;13.57;7.33;;;6.90;99.90;;;;;;5073734;28;20926;-86
2022/02/03 09:37:13;;;;;;;12.97;7.03;;;7.00;99.90;;;;;;5073018;28;20449;-85
2022/02/03 09:50:09;;;;;;;12.97;7.00;;;7.10;99.90;;;;;;5073175;28;20424;-85
2022/02/03 09:50:19;;;;;;;12.67;6.80;;;7.10;99.90;;;;;;5072878;28;20169;-86
2022/02/03 09:51:34;;;;;;;11.43;6.20;;;7.10;99.90;;;;;;5072710;28;20462;-86
2022/02/03 09:58:41;;;;;;;14.50;8.67;;;7.20;99.90;;;;;;5056188;28;20435;-86
2022/02/03 10:01:13;;;;;;;11.47;6.70;;;7.30;99.90;;;;;;5051211;28;20420;-86
2022/02/03 10:03:48;;;;;;;11.43;7.83;;;7.30;99.90;;;;;;5051443;28;20416;-85
2022/02/03 10:06:18;;;;;;;12.07;6.90;;;7.30;99.90;;;;;;5051551;28;20416;-87
2022/02/03 10:08:49;;;;;;;12.87;6.87;;;7.30;99.90;;;;;;5050366;28;20469;-85
2022/02/03 10:11:26;;;;;;;13.20;6.93;;;7.40;99.90;;;;;;5051993;28;20472;-81
2022/02/03 10:13:54;;;;;;;12.03;6.30;;;7.40;99.90;;;;;;5052053;28;20422;-82
2022/02/03 10:16:28;;;;;;;14.00;7.80;;;7.40;99.90;;;;;;5052245;28;20479;-82
2022/02/03 10:19:14;;;;;;;14.00;8.13;;;7.40;99.90;;;;;;5052207;28;20538;-82
2022/02/03 10:21:42;;;;;;;11.97;6.50;;;7.40;99.90;;;;;;5051049;28;20468;-82
2022/02/03 10:24:10;;;;;;;9.57;5.17;;;7.50;99.90;;;;;;5051812;28;20417;-82
2022/02/03 10:26:44;;;;;;;12.60;6.50;;;7.60;99.90;;;;;;5052020;28;20418;-82
2022/02/03 10:29:37;;;;;;;13.57;8.60;;;7.60;99.90;;;;;;5050628;28;20790;-82
2022/02/03 10:32:08;;;;;;;20.10;8.43;;;7.70;99.90;;;;;;5052401;28;20858;-82
2022/02/03 10:34:41;;;;;;;19.30;9.50;;;7.80;99.90;;;;;;5052035;28;20482;-85
2022/02/03 10:37:27;;;;;;;22.60;12.00;;;7.80;99.90;;;;;;5049922;28;20838;-85
2022/02/03 10:40:19;;;;;;;24.90;12.07;;;7.90;99.90;;;;;;5051525;28;20435;-85
2022/02/03 10:43:15;;;;;;;23.70;11.87;;;7.80;99.90;;;;;;5050571;28;20763;-86
2022/02/03 10:49:02;;;;;;;28.37;14.47;;;8.00;99.90;;;;;;5056835;28;20517;-85
2022/02/03 10:54:45;;;;;;;35.47;15.90;;;8.00;99.90;;;;;;5009900;28;20918;-87
2022/02/03 10:57:29;;;;;;;36.47;17.63;;;8.10;99.90;;;;;;5069198;28;20412;-88
2022/02/03 11:07:51;;;;;;;42.43;18.43;;;8.00;99.90;;;;;;5069921;28;20463;-86
2022/02/03 11:10:39;;;;;;;39.30;18.40;;;7.90;99.90;;;;;;5092651;28;20417;-89
2022/02/03 11:13:08;;;;;;;44.57;20.80;;;8.00;99.90;;;;;;5076481;28;20443;-88
2022/02/03 11:15:41;;;;;;;42.50;21.63;;;8.00;99.90;;;;;;5081600;28;20418;-85
2022/02/03 11:18:07;;;;;;;40.10;19.40;;;8.00;99.90;;;;;;5053938;28;20500;-86
2022/02/03 11:20:39;;;;;;;42.70;18.73;;;8.00;99.90;;;;;;5055348;28;20486;-88
2022/02/03 11:23:30;;;;;;;46.93;21.00;;;8.00;99.90;;;;;;5054194;28;20814;-87
2022/02/03 11:26:13;;;;;;;40.00;20.53;;;8.10;99.90;;;;;;5055296;28;20406;-87
2022/02/03 11:29:02;;;;;;;43.27;19.23;;;8.00;99.90;;;;;;5054086;28;20838;-88
2022/02/03 11:42:51;;;;;;;45.97;20.27;;;8.10;99.90;;;;;;5055922;28;20413;-86
2022/02/03 11:45:44;;;;;;;37.00;17.57;;;8.10;99.90;;;;;;5054210;28;20425;-86
2022/02/03 11:56:40;;;;;;;30.27;16.03;;;8.10;99.90;;;;;;5055598;28;20466;-89
2022/02/03 12:00:12;;;;;;;35.27;16.37;;;8.10;99.90;;;;;;5053744;28;20436;-87
2022/02/03 12:02:35;;;;;;;36.77;17.33;;;8.20;99.90;;;;;;5053908;28;20434;-89
2022/02/03 12:05:20;;;;;;;27.47;13.87;;;8.10;99.90;;;;;;5054368;28;20574;-87
2022/02/03 12:11:10;;;;;;;26.10;12.13;;;8.10;99.90;;;;;;5054287;28;20414;-89
2022/02/03 12:17:01;;;;;;;24.13;12.67;;;8.00;99.90;;;;;;5054542;28;20446;-93
2022/02/03 12:19:39;;;;;;;25.33;12.87;;;8.00;99.90;;;;;;5054485;28;20450;-87
2022/02/03 12:22:28;;;;;;;25.33;12.40;;;8.00;99.90;;;;;;5054986;28;20468;-89
2022/02/03 12:25:12;;;;;;;21.80;11.40;;;8.00;99.90;;;;;;5053237;28;20460;-88
2022/02/03 12:30:26;;;;;;;21.07;12.77;;;7.90;99.90;;;;;;5054182;28;20858;-88
2022/02/03 12:38:34;;;;;;;30.07;14.60;;;7.80;99.90;;;;;;5054026;28;20414;-88
2022/02/03 12:41:12;;;;;;;27.90;13.53;;;7.80;99.90;;;;;;5054347;28;20421;-90
2022/02/03 12:43:41;;;;;;;30.20;15.60;;;7.80;99.90;;;;;;5054300;28;20411;-92
2022/02/03 12:46:07;;;;;;;21.07;12.27;;;7.80;99.90;;;;;;5054390;28;20554;-87
2022/02/03 12:48:35;;;;;;;27.10;13.70;;;7.80;99.90;;;;;;5054391;28;20470;-88
2022/02/03 12:51:02;;;;;;;24.20;11.53;;;7.80;99.90;;;;;;5052740;28;20488;-89
2022/02/03 12:53:33;;;;;;;21.47;11.93;;;7.80;99.90;;;;;;5053065;28;20420;-90
2022/02/03 12:56:02;;;;;;;22.63;10.90;;;7.80;99.90;;;;;;5051216;28;20764;-85
2022/02/03 12:58:35;;;;;;;24.67;11.77;;;7.80;99.90;;;;;;5053042;28;20497;-87
2022/02/03 13:01:08;;;;;;;19.70;10.97;;;7.80;99.90;;;;;;5053275;28;20501;-88
2022/02/03 13:03:42;;;;;;;21.10;10.27;;;7.80;99.90;;;;;;5053189;28;20898;-90
2022/02/03 13:06:13;;;;;;;25.87;12.50;;;7.80;99.90;;;;;;5052946;28;20918;-86
2022/02/03 13:08:42;;;;;;;20.63;11.50;;;8.00;99.90;;;;;;5053073;28;20478;-85
2022/02/03 13:13:59;;;;;;;19.13;10.40;;;8.00;99.90;;;;;;5054224;28;20460;-87
2022/02/03 13:16:25;;;;;;;17.17;9.80;;;8.20;99.90;;;;;;5054330;28;20405;-88
2022/02/03 13:19:04;;;;;;;19.17;11.40;;;8.10;99.90;;;;;;5052929;28;20470;-89
2022/02/03 13:21:44;;;;;;;18.10;9.53;;;8.10;99.90;;;;;;5054064;28;20188;-87
2022/02/03 13:26:53;;;;;;;17.33;9.73;;;8.00;99.90;;;;;;5053822;28;20458;-86
2022/02/03 13:29:28;;;;;;;16.33;8.97;;;7.90;99.90;;;;;;5053401;28;20450;-87
2022/02/03 13:31:59;;;;;;;14.97;8.40;;;7.90;99.90;;;;;;5053565;28;20411;-85
2022/02/03 13:34:36;;;;;;;16.73;9.97;;;7.80;99.90;;;;;;5053783;28;20419;-87
2022/02/03 13:37:18;;;;;;;15.50;9.43;;;7.80;99.90;;;;;;5053640;28;20507;-86
2022/02/03 13:39:48;;;;;;;14.33;7.63;;;7.80;99.90;;;;;;5053406;28;20471;-86
2022/02/03 13:42:15;;;;;;;15.77;8.30;;;7.80;99.90;;;;;;5054068;28;20577;-86
2022/02/03 13:44:41;;;;;;;14.30;8.23;;;7.80;99.90;;;;;;5053216;28;20414;-89
2022/02/03 13:47:24;;;;;;;13.90;7.93;;;7.80;99.90;;;;;;5073296;28;20530;-86
2022/02/03 13:50:11;;;;;;;16.60;8.70;;;7.80;99.90;;;;;;5073592;28;20254;-86
2022/02/03 14:15:46;;;;;;;11.50;6.53;;;7.70;99.90;;;;;;5071508;28;20924;-86
2022/02/03 14:20:43;;;;;;;16.13;7.20;;;7.70;99.90;;;;;;5073126;28;20471;-85
2022/02/03 14:26:47;;;;;;;17.23;9.63;;;7.70;99.90;;;;;;5072073;28;20570;-85
2022/02/03 14:28:40;;;;;;;17.13;9.37;;;7.70;99.90;;;;;;5058430;28;20481;-89
2022/02/03 14:31:08;;;;;;;13.00;8.50;;;7.70;99.90;;;;;;5067298;28;20429;-85
2022/02/03 14:33:40;;;;;;;12.93;7.20;;;7.60;99.90;;;;;;5071639;28;20433;-85
2022/02/03 14:36:10;;;;;;;11.10;8.07;;;7.60;99.90;;;;;;5072394;28;20410;-85
2022/02/03 14:38:45;;;;;;;13.07;7.13;;;7.60;99.90;;;;;;5072501;28;20410;-86
2022/02/03 14:41:24;;;;;;;10.30;6.50;;;7.60;99.90;;;;;;5071003;28;20491;-83
2022/02/03 14:43:51;;;;;;;11.63;7.60;;;7.60;99.90;;;;;;5087296;28;20453;-83
2022/02/03 14:46:17;;;;;;;12.70;7.60;;;7.50;99.90;;;;;;5092444;28;20417;-85
2022/02/03 14:48:45;;;;;;;12.00;7.57;;;7.50;99.90;;;;;;5091069;28;21092;-84
2022/02/03 14:51:18;;;;;;;16.03;7.63;;;7.50;99.90;;;;;;5092405;28;20409;-84
2022/02/03 14:53:54;;;;;;;14.33;6.93;;;7.50;99.90;;;;;;5091136;28;20436;-86
2022/02/03 14:59:08;;;;;;;13.13;6.53;;;7.50;99.90;;;;;;5091856;28;20502;-85
2022/02/03 15:01:35;;;;;;;12.23;6.80;;;7.50;99.90;;;;;;5092192;28;20809;-83
2022/02/03 15:04:05;;;;;;;15.90;7.30;;;7.40;99.90;;;;;;5090018;28;20405;-84
2022/02/03 15:06:39;;;;;;;9.40;6.03;;;7.50;99.90;;;;;;5071776;28;20414;-85
2022/02/03 15:09:19;;;;;;;11.10;6.30;;;7.50;99.90;;;;;;5070539;28;20456;-84
2022/02/03 15:12:00;;;;;;;12.57;7.27;;;7.50;99.90;;;;;;5070679;28;20426;-86
2022/02/03 15:14:25;;;;;;;11.00;6.07;;;7.50;99.90;;;;;;5072353;28;20428;-86
2022/02/03 15:16:54;;;;;;;11.67;5.20;;;7.40;99.90;;;;;;5071894;28;20915;-84
2022/02/03 15:19:20;;;;;;;11.53;6.73;;;7.40;99.90;;;;;;5081224;28;20176;-84
2022/02/03 15:21:46;;;;;;;9.60;6.43;;;7.40;99.90;;;;;;5076530;28;20406;-85
2022/02/03 15:24:14;;;;;;;15.23;6.10;;;7.40;99.90;;;;;;5071817;28;20667;-85
2022/02/03 15:26:41;;;;;;;14.60;6.20;;;7.30;99.90;;;;;;5072227;28;20413;-85
2022/02/03 15:29:06;;;;;;;11.00;6.50;;;7.30;99.90;;;;;;5071614;28;20421;-85
2022/02/03 15:31:33;;;;;;;11.90;6.37;;;7.30;99.90;;;;;;5071906;28;20402;-84
2022/02/03 15:34:19;;;;;;;9.17;6.00;;;7.30;99.90;;;;;;5071765;28;20190;-85
2022/02/03 15:36:49;;;;;;;10.50;6.67;;;7.30;99.90;;;;;;5071591;28;20925;-84
2022/02/03 15:39:20;;;;;;;14.47;6.97;;;7.30;99.90;;;;;;5070007;28;20429;-85
2022/02/03 15:41:47;;;;;;;11.17;7.23;;;7.30;99.90;;;;;;5070325;28;20736;-83
2022/02/03 15:44:14;;;;;;;11.33;6.67;;;7.30;99.90;;;;;;5071248;28;20422;-84
2022/02/03 15:46:45;;;;;;;12.93;6.70;;;7.30;99.90;;;;;;5071189;28;20404;-85
2022/02/03 15:49:32;;;;;;;12.17;6.40;;;7.30;99.90;;;;;;5074913;28;20510;-83
2022/02/03 15:58:21;;;;;;;10.80;6.60;;;7.30;99.90;;;;;;5074840;28;20471;-85
2022/02/03 16:01:05;;;;;;;12.93;7.60;;;7.20;99.90;;;;;;5074402;28;20485;-86
2022/02/03 16:03:34;;;;;;;9.77;6.60;;;7.20;99.90;;;;;;5074606;28;20412;-83
2022/02/03 16:16:58;;;;;;;8.10;5.47;;;7.20;99.90;;;;;;5074538;28;20911;-86
2022/02/03 16:19:31;;;;;;;7.63;5.60;;;7.30;99.90;;;;;;5074462;28;20414;-84
2022/02/03 16:22:03;;;;;;;9.50;6.03;;;7.30;99.90;;;;;;5073060;28;20417;-87
2022/02/03 16:40:45;;;;;;;11.90;6.93;;;7.30;99.90;;;;;;5072329;28;20973;-86
2022/02/03 16:41:02;;;;;;;9.53;5.93;;;7.20;99.90;;;;;;5054335;28;20520;-86
2022/02/03 16:54:24;;;;;;;10.63;6.60;;;7.00;99.90;;;;;;5053518;28;20409;-86
2022/02/03 16:56:56;;;;;;;10.40;6.10;;;7.00;99.90;;;;;;5053114;28;20411;-86
2022/02/03 16:59:22;;;;;;;11.77;7.17;;;7.00;99.90;;;;;;5052171;28;20176;-85
2022/02/03 17:01:47;;;;;;;11.13;7.13;;;7.00;99.90;;;;;;5052583;28;20949;-85
2022/02/03 17:04:17;;;;;;;10.53;6.53;;;6.90;99.90;;;;;;5054243;28;20652;-85
2022/02/03 17:06:47;;;;;;;12.70;7.77;;;6.90;99.90;;;;;;5054038;28;20194;-85
2022/02/03 17:09:13;;;;;;;9.70;5.73;;;6.90;99.90;;;;;;5052644;28;20478;-84
2022/02/03 17:11:38;;;;;;;14.93;7.03;;;6.90;99.90;;;;;;5052904;28;20464;-85
2022/02/03 17:14:04;;;;;;;12.00;6.90;;;6.90;99.90;;;;;;5053648;28;20425;-86
2022/02/03 17:16:35;;;;;;;12.13;7.00;;;6.90;99.90;;;;;;5052823;28;20184;-85
2022/02/03 17:19:04;;;;;;;9.73;6.77;;;6.90;99.90;;;;;;5053692;28;20249;-86
2022/02/03 17:21:31;;;;;;;12.13;6.27;;;6.90;99.90;;;;;;5053781;28;20446;-85
2022/02/03 17:23:56;;;;;;;13.13;7.60;;;6.90;99.90;;;;;;5053609;28;20455;-85
2022/02/03 17:26:35;;;;;;;11.00;6.63;;;6.80;99.90;;;;;;5052300;28;20422;-84
2022/02/03 17:29:17;;;;;;;11.77;6.20;;;6.90;99.90;;;;;;5053376;28;20274;-84
2022/02/03 18:09:54;;;;;;;14.33;7.77;;;7.00;99.90;;;;;;5071889;28;20420;-87
2022/02/03 18:26:02;;;;;;;14.43;6.30;;;7.00;99.90;;;;;;5072778;28;20452;-87
2022/02/03 18:32:25;;;;;;;10.23;7.00;;;7.00;99.90;;;;;;5071895;28;20447;-83
2022/02/03 18:50:27;;;;;;;11.10;7.73;;;6.90;99.90;;;;;;5062419;28;20742;-84
2022/02/03 18:53:11;;;;;;;15.03;8.97;;;7.00;99.90;;;;;;5052413;28;20894;-84
2022/02/03 19:15:03;;;;;;;14.97;9.20;;;6.90;99.90;;;;;;5073476;28;20407;-81
2022/02/03 19:28:44;;;;;;;17.20;9.53;;;6.90;99.90;;;;;;5079967;28;21083;-90
2022/02/03 20:04:03;;;;;;;17.07;10.70;;;6.80;99.90;;;;;;5077103;28;20412;-87
2022/02/03 20:11:38;;;;;;;14.73;8.80;;;6.80;99.90;;;;;;5075870;28;20417;-86
2022/02/03 20:14:12;;;;;;;14.87;9.50;;;6.80;99.90;;;;;;5073584;28;20178;-84
2022/02/03 20:16:43;;;;;;;17.50;10.87;;;6.80;99.90;;;;;;5070279;28;20176;-85
2022/02/03 20:19:09;;;;;;;18.30;11.03;;;6.80;99.90;;;;;;5065943;28;20469;-87
2022/02/03 20:21:36;;;;;;;13.90;10.90;;;6.80;99.90;;;;;;5054154;28;20421;-84
2022/02/03 20:24:04;;;;;;;14.33;9.83;;;6.80;99.90;;;;;;5055225;28;20495;-85
2022/02/03 20:26:30;;;;;;;16.27;9.97;;;6.80;99.90;;;;;;5055174;28;20852;-85
2022/02/03 20:28:56;;;;;;;16.43;9.87;;;6.80;99.90;;;;;;5054819;28;20498;-82
2022/02/03 20:31:24;;;;;;;16.90;10.50;;;6.80;99.90;;;;;;5055313;28;20409;-87
2022/02/03 20:33:49;;;;;;;17.93;11.37;;;6.80;99.90;;;;;;5054622;28;20169;-82
2022/02/03 20:36:15;;;;;;;18.13;12.57;;;6.80;99.90;;;;;;5054994;28;20784;-85
2022/02/03 20:38:41;;;;;;;19.20;11.50;;;6.80;99.90;;;;;;5055067;28;20603;-84
2022/02/03 20:41:07;;;;;;;19.47;11.17;;;6.70;99.90;;;;;;5055076;28;20236;-87
2022/02/03 20:43:44;;;;;;;18.17;12.17;;;6.70;99.90;;;;;;5054546;28;20175;-83
2022/02/03 20:46:10;;;;;;;18.70;12.07;;;6.70;99.90;;;;;;5053688;28;20176;-82
2022/02/03 20:48:45;;;;;;;16.90;11.00;;;6.70;99.90;;;;;;5054702;28;20489;-84
2022/02/03 20:51:14;;;;;;;21.80;11.50;;;6.70;99.90;;;;;;5053435;28;20455;-90
2022/02/03 20:53:40;;;;;;;23.17;12.63;;;6.70;99.90;;;;;;5053752;28;20909;-84
2022/02/03 20:56:06;;;;;;;20.57;12.37;;;6.70;99.90;;;;;;5054837;28;20812;-86
2022/02/03 20:58:32;;;;;;;18.10;11.67;;;6.60;99.90;;;;;;5053984;28;20420;-86
2022/02/03 21:01:07;;;;;;;21.13;12.97;;;6.60;99.90;;;;;;5054412;28;20206;-89
2022/02/03 21:03:40;;;;;;;19.13;11.83;;;6.60;99.90;;;;;;5053092;28;20917;-84
2022/02/03 21:06:08;;;;;;;19.23;11.33;;;6.60;99.90;;;;;;5054367;28;20421;-83
2022/02/03 21:08:35;;;;;;;16.27;11.27;;;6.60;99.90;;;;;;5054014;28;20474;-88
2022/02/03 21:11:02;;;;;;;18.87;10.60;;;6.60;99.90;;;;;;5052735;28;20784;-86
2022/02/03 21:13:27;;;;;;;16.20;10.10;;;6.60;99.90;;;;;;5072681;28;20806;-86
2022/02/03 21:15:54;;;;;;;20.53;12.60;;;6.60;99.90;;;;;;5073994;28;20415;-83
2022/02/03 21:18:20;;;;;;;19.73;12.20;;;6.60;99.90;;;;;;5073943;28;20210;-83
2022/02/03 21:20:50;;;;;;;16.43;11.30;;;6.60;99.90;;;;;;5072802;28;20517;-88
2022/02/03 21:23:16;;;;;;;18.57;11.67;;;6.60;99.90;;;;;;5074107;28;20413;-84
2022/02/03 21:25:47;;;;;;;19.70;11.50;;;6.60;99.90;;;;;;5073968;28;20829;-84
2022/02/03 21:28:25;;;;;;;17.97;11.87;;;6.60;99.90;;;;;;5072268;28;20504;-83
2022/02/03 21:30:51;;;;;;;17.40;11.17;;;6.60;99.90;;;;;;5073535;28;20407;-82
2022/02/03 21:33:23;;;;;;;16.80;11.03;;;6.60;99.90;;;;;;5072000;28;20420;-82
2022/02/03 21:35:50;;;;;;;17.70;11.43;;;6.60;99.90;;;;;;5073472;28;20921;-86
2022/02/03 21:38:16;;;;;;;17.53;12.23;;;6.50;99.90;;;;;;5073545;28;20463;-83
2022/02/03 21:40:42;;;;;;;18.43;13.17;;;6.60;99.90;;;;;;5073711;28;20875;-82
2022/02/03 21:43:08;;;;;;;17.67;11.83;;;6.60;99.90;;;;;;5071839;28;20494;-85
2022/02/03 21:45:34;;;;;;;21.87;12.73;;;6.60;99.90;;;;;;5072591;28;20198;-81
2022/02/03 21:48:00;;;;;;;23.97;13.80;;;6.60;99.90;;;;;;5073468;28;20579;-83
2022/02/03 21:50:31;;;;;;;19.67;13.50;;;6.50;99.90;;;;;;5073325;28;20461;-86
2022/02/03 21:52:57;;;;;;;19.40;13.07;;;6.60;99.90;;;;;;5066705;28;20432;-81
2022/02/03 21:55:23;;;;;;;20.87;12.20;;;6.50;99.90;;;;;;5073125;28;20413;-81
2022/02/03 21:57:53;;;;;;;18.80;11.53;;;6.50;99.90;;;;;;5072674;28;20220;-82
2022/02/03 22:00:19;;;;;;;22.50;13.10;;;6.60;99.90;;;;;;5073126;28;20880;-81
2022/02/03 22:02:46;;;;;;;21.17;12.80;;;6.60;99.90;;;;;;5073227;28;20485;-85
2022/02/03 22:05:12;;;;;;;22.87;13.87;;;6.60;99.90;;;;;;5071883;28;20424;-80
2022/02/03 22:07:43;;;;;;;21.73;14.77;;;6.60;99.90;;;;;;5073147;28;20468;-86
2022/02/03 22:10:11;;;;;;;26.67;12.63;;;6.60;99.90;;;;;;5071992;28;20912;-81
2022/02/03 22:12:37;;;;;;;24.43;14.07;;;6.60;99.90;;;;;;5072592;28;20760;-82
2022/02/03 22:15:09;;;;;;;22.07;13.20;;;6.60;99.90;;;;;;5073226;28;20455;-81
2022/02/03 22:17:34;;;;;;;22.07;13.23;;;6.60;99.90;;;;;;5072649;28;20213;-83
2022/02/03 22:20:05;;;;;;;20.47;12.40;;;6.60;99.90;;;;;;5067686;28;20424;-82
2022/02/03 22:26:10;;;;;;;26.57;14.47;;;6.60;99.90;;;;;;5072831;28;20937;-87